createdAt,value
2018-03-01T00:00:16.543Z,-3.92
2018-03-01T00:02:45.336Z,-3.65
2018-03-01T00:05:14.510Z,-4.08
2018-03-01T00:07:43.572Z,-4.15
2018-03-01T00:10:13.372Z,-4.37
2018-03-01T00:12:42.958Z,-4.86
2018-03-01T00:15:11.524Z,-4.48
2018-03-01T00:17:42.966Z,-4.63
2018-03-01T00:20:12.711Z,-4.56
2018-03-01T00:22:41.201Z,-4.71
2018-03-01T00:25:10.511Z,-4.49
2018-03-01T00:27:39.459Z,-4.54
2018-03-01T00:30:09.041Z,-4.46
2018-03-01T00:32:37.871Z,-4.47
2018-03-01T00:35:06.286Z,-4.75
2018-03-01T00:37:34.948Z,-4.71
2018-03-01T00:40:03.804Z,-4.26
2018-03-01T00:42:35.936Z,-4.81
2018-03-01T00:45:04.766Z,-4.46
2018-03-01T00:47:33.763Z,-4.34
2018-03-01T00:50:03.288Z,-4.37
2018-03-01T00:52:32.055Z,-4.17
2018-03-01T00:55:01.573Z,-4.73
2018-03-01T00:57:32.254Z,-4.69
2018-03-01T01:00:00.958Z,-4.91
2018-03-01T01:02:29.644Z,-4.50
2018-03-01T01:04:58.202Z,-4.58
2018-03-01T01:07:28.548Z,-4.30
2018-03-01T01:09:58.200Z,-4.74
2018-03-01T01:12:26.768Z,-4.88
2018-03-01T01:14:56.199Z,-4.14
2018-03-01T01:17:24.828Z,-4.92
2018-03-01T01:19:54.565Z,-4.61
2018-03-01T01:22:25.233Z,-4.74
2018-03-01T01:24:53.965Z,-4.62
2018-03-01T01:27:24.730Z,-4.54
2018-03-01T01:29:53.885Z,-4.35
2018-03-01T01:32:22.288Z,-4.35
2018-03-01T01:34:52.143Z,-4.02
2018-03-01T01:37:20.988Z,-4.18
2018-03-01T01:39:50.006Z,-4.50
2018-03-01T01:42:18.731Z,-4.71
2018-03-01T01:44:47.506Z,-5.09
2018-03-01T01:47:17.216Z,-4.89
2018-03-01T01:49:45.806Z,-4.92
2018-03-01T01:52:17.363Z,-4.91
2018-03-01T01:54:46.573Z,-4.57
2018-03-01T01:57:15.021Z,-5.05
2018-03-01T01:59:47.387Z,-5.10
2018-03-01T02:02:16.029Z,-4.98
2018-03-01T02:04:44.645Z,-5.23
2018-03-01T02:07:14.525Z,-5.79
2018-03-01T02:09:43.557Z,-5.39
2018-03-01T02:12:12.318Z,-5.18
2018-03-01T02:14:43.455Z,-5.09
2018-03-01T02:17:12.277Z,-5.21
2018-03-01T02:19:41.001Z,-5.12
2018-03-01T02:22:15.415Z,-5.49
2018-03-01T02:24:44.460Z,-5.33
2018-03-01T02:27:14.206Z,-5.77
2018-03-01T02:29:42.833Z,-5.54
2018-03-01T02:32:11.995Z,-5.63
2018-03-01T02:34:41.915Z,-5.71
2018-03-01T02:37:11.819Z,-5.37
2018-03-01T02:39:40.676Z,-5.42
2018-03-01T02:42:09.501Z,-5.60
2018-03-01T02:44:38.891Z,-5.90
2018-03-01T02:47:07.455Z,-5.93
2018-03-01T02:49:36.726Z,-5.34
2018-03-01T02:52:05.555Z,-5.29
2018-03-01T02:54:34.037Z,-5.32
2018-03-01T02:57:03.725Z,-5.23
2018-03-01T02:59:33.354Z,-5.91
2018-03-01T03:02:02.096Z,-6.03
2018-03-01T03:04:30.918Z,-5.94
2018-03-01T03:06:59.786Z,-5.85
2018-03-01T03:09:28.606Z,-5.57
2018-03-01T03:11:57.492Z,-5.57
2018-03-01T03:14:26.814Z,-5.66
2018-03-01T03:16:55.642Z,-5.63
2018-03-01T03:19:24.115Z,-5.90
2018-03-01T03:21:53.869Z,-5.29
2018-03-01T03:24:23.503Z,-5.97
2018-03-01T03:26:52.694Z,-6.04
2018-03-01T03:29:23.047Z,-6.18
2018-03-01T03:31:51.474Z,-5.99
2018-03-01T03:34:20.293Z,-6.30
2018-03-01T03:36:49.362Z,-5.88
2018-03-01T03:39:18.211Z,-5.87
2018-03-01T03:41:47.906Z,-5.87
2018-03-01T03:44:16.586Z,-5.77
2018-03-01T03:46:47.001Z,-5.42
2018-03-01T03:49:16.319Z,-5.68
2018-03-01T03:51:45.163Z,-5.58
2018-03-01T03:54:14.396Z,-5.67
2018-03-01T03:56:42.863Z,-5.63
2018-03-01T03:59:11.630Z,-5.43
2018-03-01T04:01:40.784Z,-5.78
2018-03-01T04:04:10.173Z,-5.64
2018-03-01T04:06:38.813Z,-5.84
2018-03-01T04:09:07.612Z,-6.08
2018-03-01T04:11:42.232Z,-5.90
2018-03-01T04:14:11.980Z,-6.22
2018-03-01T04:16:41.070Z,-5.58
2018-03-01T04:19:12.221Z,-5.94
2018-03-01T04:21:41.350Z,-6.19
2018-03-01T04:24:11.047Z,-6.71
2018-03-01T04:26:39.881Z,-6.60
2018-03-01T04:29:09.219Z,-6.66
2018-03-01T04:31:40.590Z,-6.28
2018-03-01T04:34:09.431Z,-6.08
2018-03-01T04:36:37.920Z,-6.62
2018-03-01T04:39:09.848Z,-6.51
2018-03-01T04:41:40.500Z,-6.78
2018-03-01T04:44:08.903Z,-6.59
2018-03-01T04:46:38.152Z,-6.27
2018-03-01T04:49:07.663Z,-6.14
2018-03-01T04:51:37.949Z,-6.16
2018-03-01T04:54:07.021Z,-6.73
2018-03-01T04:56:35.534Z,-6.73
2018-03-01T04:59:03.934Z,-6.33
2018-03-01T05:01:32.353Z,-6.25
2018-03-01T05:04:00.775Z,-5.90
2018-03-01T05:06:30.448Z,-6.04
2018-03-01T05:08:59.132Z,-6.39
2018-03-01T05:11:27.619Z,-5.98
2018-03-01T05:13:56.754Z,-6.89
2018-03-01T05:16:25.574Z,-6.42
2018-03-01T05:18:56.237Z,-6.54
2018-03-01T05:21:27.059Z,-6.28
2018-03-01T05:23:55.464Z,-5.81
2018-03-01T05:26:24.814Z,-6.34
2018-03-01T05:28:53.699Z,-6.97
2018-03-01T05:31:24.191Z,-6.80
2018-03-01T05:33:53.906Z,-6.74
2018-03-01T05:36:22.392Z,-6.51
2018-03-01T05:38:51.983Z,-6.52
2018-03-01T05:41:20.534Z,-6.70
2018-03-01T05:43:49.436Z,-7.38
2018-03-01T05:46:18.292Z,-7.01
2018-03-01T05:48:46.975Z,-6.73
2018-03-01T05:51:16.849Z,-6.83
2018-03-01T05:53:45.694Z,-6.57
2018-03-01T05:56:15.133Z,-6.36
2018-03-01T05:58:45.085Z,-6.53
2018-03-01T06:01:13.539Z,-7.10
2018-03-01T06:03:42.466Z,-7.33
2018-03-01T06:06:11.501Z,-6.80
2018-03-01T06:08:39.985Z,-6.69
2018-03-01T06:11:08.527Z,-6.59
2018-03-01T06:13:37.351Z,-7.22
2018-03-01T06:16:05.781Z,-6.82
2018-03-01T06:18:34.195Z,-7.15
2018-03-01T06:21:02.819Z,-7.07
2018-03-01T06:23:32.231Z,-7.10
2018-03-01T06:26:03.504Z,-6.77
2018-03-01T06:28:31.910Z,-6.12
2018-03-01T06:31:02.070Z,-6.09
2018-03-01T06:33:31.050Z,-5.07
2018-03-01T06:35:59.471Z,-5.05
2018-03-01T06:38:28.248Z,-4.62
2018-03-01T06:40:56.798Z,-3.48
2018-03-01T06:43:27.294Z,-3.62
2018-03-01T06:45:56.223Z,-3.69
2018-03-01T06:48:24.866Z,-3.32
2018-03-01T06:50:53.845Z,-3.08
2018-03-01T06:53:23.387Z,-3.05
2018-03-01T06:55:52.376Z,-2.55
2018-03-01T06:58:21.386Z,-2.46
2018-03-01T07:00:50.115Z,-2.38
2018-03-01T07:03:19.532Z,-1.67
2018-03-01T07:05:49.487Z,-0.64
2018-03-01T07:08:20.085Z,-1.28
2018-03-01T07:10:49.294Z,0.12
2018-03-01T07:13:18.088Z,1.70
2018-03-01T07:15:48.318Z,2.89
2018-03-01T07:18:18.049Z,2.65
2018-03-01T07:20:48.418Z,2.41
2018-03-01T07:23:17.239Z,1.92
2018-03-01T07:25:46.631Z,1.49
2018-03-01T07:28:16.831Z,1.73
2018-03-01T07:30:45.515Z,2.49
2018-03-01T07:33:15.331Z,2.33
2018-03-01T07:35:44.088Z,1.43
2018-03-01T07:38:12.717Z,1.58
2018-03-01T07:40:41.231Z,1.67
2018-03-01T07:43:09.998Z,1.72
2018-03-01T07:45:40.539Z,1.99
2018-03-01T07:48:09.779Z,2.36
2018-03-01T07:50:41.150Z,2.42
2018-03-01T07:53:10.659Z,3.12
2018-03-01T07:55:39.605Z,2.87
2018-03-01T07:58:08.628Z,1.97
2018-03-01T08:00:37.002Z,1.78
2018-03-01T08:03:05.388Z,1.91
2018-03-01T08:05:35.623Z,2.06
2018-03-01T08:08:05.091Z,3.51
2018-03-01T08:10:34.609Z,4.18
2018-03-01T08:13:02.999Z,5.76
2018-03-01T08:15:31.373Z,5.78
2018-03-01T08:18:00.077Z,5.97
2018-03-01T08:20:29.502Z,3.50
2018-03-01T08:22:58.244Z,3.24
2018-03-01T08:25:26.689Z,4.47
2018-03-01T08:27:56.455Z,5.07
2018-03-01T08:30:25.231Z,6.60
2018-03-01T08:32:53.786Z,6.56
2018-03-01T08:35:24.317Z,6.08
2018-03-01T08:37:55.118Z,7.14
2018-03-01T08:40:24.924Z,6.21
2018-03-01T08:42:53.797Z,6.08
2018-03-01T08:45:23.981Z,6.39
2018-03-01T08:47:52.394Z,7.03
2018-03-01T08:50:20.757Z,5.17
2018-03-01T08:52:50.912Z,3.13
2018-03-01T08:55:19.828Z,3.67
2018-03-01T08:57:48.767Z,2.74
2018-03-01T09:00:17.132Z,2.50
2018-03-01T09:02:45.616Z,3.23
2018-03-01T09:05:13.980Z,3.09
2018-03-01T09:07:42.341Z,3.90
2018-03-01T09:10:11.109Z,4.14
2018-03-01T09:12:39.576Z,3.85
2018-03-01T09:15:07.956Z,4.14
2018-03-01T09:17:36.330Z,4.04
2018-03-01T09:20:04.710Z,4.02
2018-03-01T09:22:33.066Z,2.91
2018-03-01T09:25:01.432Z,2.77
2018-03-01T09:27:29.798Z,3.28
2018-03-01T09:29:58.175Z,2.85
2018-03-01T09:32:26.542Z,3.02
2018-03-01T09:34:55.297Z,3.22
2018-03-01T09:37:23.660Z,3.41
2018-03-01T09:39:52.033Z,3.75
2018-03-01T09:42:20.502Z,3.23
2018-03-01T09:44:48.867Z,4.40
2018-03-01T09:47:17.238Z,4.69
2018-03-01T09:49:45.594Z,5.21
2018-03-01T09:52:14.169Z,5.30
2018-03-01T09:54:42.602Z,5.79
2018-03-01T09:57:10.967Z,5.85
2018-03-01T09:59:39.328Z,5.75
2018-03-01T10:02:07.737Z,5.94
2018-03-01T10:04:36.096Z,6.29
2018-03-01T10:07:04.859Z,6.53
2018-03-01T10:09:33.210Z,6.39
2018-03-01T10:12:01.588Z,6.86
2018-03-01T10:14:29.951Z,5.69
2018-03-01T10:16:58.326Z,4.38
2018-03-01T10:19:26.704Z,3.83
2018-03-01T10:21:55.102Z,3.86
2018-03-01T10:24:23.486Z,3.65
2018-03-01T10:26:51.860Z,3.27
2018-03-01T10:29:20.241Z,4.68
2018-03-01T10:31:48.615Z,5.31
2018-03-01T10:34:16.975Z,5.34
2018-03-01T10:36:45.364Z,4.96
2018-03-01T10:39:13.707Z,4.31
2018-03-01T10:41:42.075Z,4.34
2018-03-01T10:44:10.825Z,3.36
2018-03-01T10:46:39.213Z,3.09
2018-03-01T10:49:07.581Z,3.66
2018-03-01T10:51:35.972Z,3.56
2018-03-01T10:54:04.332Z,4.06
2018-03-01T10:56:32.719Z,4.34
2018-03-01T10:59:01.112Z,3.24
2018-03-01T11:01:33.302Z,2.61
2018-03-01T11:04:01.652Z,2.68
2018-03-01T11:06:30.008Z,2.72
2018-03-01T11:08:58.368Z,2.59
2018-03-01T11:11:26.753Z,2.21
2018-03-01T11:13:55.142Z,2.77
2018-03-01T11:16:23.503Z,2.84
2018-03-01T11:18:51.855Z,2.36
2018-03-01T11:21:20.620Z,3.15
2018-03-01T11:23:48.982Z,2.59
2018-03-01T11:26:17.348Z,2.05
2018-03-01T11:28:45.709Z,1.17
2018-03-01T11:31:14.088Z,0.01
2018-03-01T11:33:42.465Z,-0.22
2018-03-01T11:36:10.854Z,-0.98
2018-03-01T11:38:39.223Z,-0.57
2018-03-01T11:41:07.612Z,-0.72
2018-03-01T11:43:35.980Z,-0.89
2018-03-01T11:46:04.368Z,-0.46
2018-03-01T11:48:32.827Z,-0.79
2018-03-01T11:51:01.573Z,-0.74
2018-03-01T11:53:30.364Z,-0.95
2018-03-01T11:55:58.750Z,-1.03
2018-03-01T11:58:27.506Z,-0.99
2018-03-01T12:00:55.893Z,-0.94
2018-03-01T12:03:24.278Z,-0.44
2018-03-01T12:05:52.654Z,-0.49
2018-03-01T12:08:21.018Z,-1.32
2018-03-01T12:10:49.436Z,-0.79
2018-03-01T12:13:17.844Z,-0.98
2018-03-01T12:15:46.222Z,-0.57
2018-03-01T12:18:14.593Z,-0.48
2018-03-01T12:20:42.992Z,-0.19
2018-03-01T12:23:11.400Z,-0.57
2018-03-01T12:25:39.765Z,-0.89
2018-03-01T12:28:08.147Z,-1.09
2018-03-01T12:30:36.636Z,-0.90
2018-03-01T12:33:05.005Z,-0.66
2018-03-01T12:35:33.423Z,-0.51
2018-03-01T12:38:02.197Z,-0.41
2018-03-01T12:40:30.596Z,-0.55
2018-03-01T12:42:59.378Z,-0.54
2018-03-01T12:45:27.772Z,-0.43
2018-03-01T12:47:56.206Z,-0.19
2018-03-01T12:50:24.594Z,-0.74
2018-03-01T12:52:52.965Z,-0.67
2018-03-01T12:55:21.364Z,-1.15
2018-03-01T12:57:50.154Z,-0.69
2018-03-01T13:00:18.528Z,-0.20
2018-03-01T13:02:46.893Z,0.19
2018-03-01T13:05:15.283Z,-0.03
2018-03-01T13:07:43.723Z,-0.16
2018-03-01T13:10:12.084Z,-0.61
2018-03-01T13:12:40.475Z,-1.10
2018-03-01T13:15:08.958Z,-0.92
2018-03-01T13:17:37.326Z,-1.50
2018-03-01T13:20:05.733Z,-1.06
2018-03-01T13:22:34.154Z,-0.56
2018-03-01T13:25:02.936Z,-0.65
2018-03-01T13:27:31.729Z,-0.84
2018-03-01T13:30:00.099Z,-0.74
2018-03-01T13:32:39.148Z,-0.83
2018-03-01T13:35:10.264Z,-1.02
2018-03-01T13:37:39.056Z,-0.79
2018-03-01T13:40:07.419Z,-0.67
2018-03-01T13:42:38.029Z,-0.22
2018-03-01T13:45:06.432Z,-0.39
2018-03-01T13:47:34.815Z,-0.83
2018-03-01T13:50:03.205Z,-1.27
2018-03-01T13:52:32.021Z,-1.29
2018-03-01T13:55:00.426Z,-0.99
2018-03-01T13:57:28.814Z,-0.97
2018-03-01T13:59:57.302Z,-0.65
2018-03-01T14:02:25.680Z,-0.68
2018-03-01T14:04:54.089Z,-1.25
2018-03-01T14:07:24.192Z,-0.83
2018-03-01T14:09:52.560Z,-0.80
2018-03-01T14:15:46.040Z,-0.48
2018-03-01T14:18:20.463Z,-0.75
2018-03-01T14:21:06.517Z,-0.81
2018-03-01T14:23:36.261Z,-0.90
2018-03-01T14:29:22.166Z,-0.94
2018-03-01T14:31:50.572Z,-1.35
2018-03-01T14:34:18.949Z,-0.85
2018-03-01T14:36:47.355Z,-0.14
2018-03-01T14:39:15.758Z,-0.32
2018-03-01T14:41:44.132Z,-0.65
2018-03-01T14:44:12.898Z,-0.36
2018-03-01T14:46:41.695Z,-1.21
2018-03-01T14:49:10.477Z,-0.62
2018-03-01T14:51:39.080Z,-0.34
2018-03-01T14:54:07.836Z,-0.22
2018-03-01T14:56:36.633Z,-0.81
2018-03-01T14:59:05.007Z,-0.81
2018-03-01T15:01:33.415Z,-1.27
2018-03-01T15:04:01.849Z,-1.13
2018-03-01T15:06:30.379Z,-0.98
2018-03-01T15:08:58.805Z,-1.01
2018-03-01T15:11:27.212Z,-1.17
2018-03-01T15:13:56.109Z,-0.89
2018-03-01T15:16:24.944Z,-1.12
2018-03-01T15:18:53.347Z,-1.14
2018-03-01T15:21:21.964Z,-1.38
2018-03-01T15:23:50.376Z,-1.71
2018-03-01T15:26:18.818Z,-1.36
2018-03-01T15:28:47.630Z,-1.57
2018-03-01T15:31:16.101Z,-1.60
2018-03-01T15:33:44.540Z,-1.63
2018-03-01T15:36:12.949Z,-1.14
2018-03-01T15:38:41.749Z,-1.45
2018-03-01T15:41:10.163Z,-1.36
2018-03-01T15:43:38.559Z,-1.91
2018-03-01T15:46:06.970Z,-1.61
2018-03-01T15:48:35.761Z,-1.49
2018-03-01T15:51:04.561Z,-1.49
2018-03-01T15:53:32.957Z,-1.53
2018-03-01T15:56:01.380Z,-1.80
2018-03-01T15:58:29.788Z,-1.35
2018-03-01T16:00:58.585Z,-1.42
2018-03-01T16:03:27.373Z,-1.87
2018-03-01T16:05:55.844Z,-1.77
2018-03-01T16:08:24.648Z,-1.33
2018-03-01T16:10:53.065Z,-0.83
2018-03-01T16:13:21.461Z,-1.40
2018-03-01T16:15:49.874Z,-1.65
2018-03-01T16:18:18.693Z,-1.25
2018-03-01T16:20:47.097Z,-1.55
2018-03-01T16:23:15.491Z,-2.11
2018-03-01T16:25:43.932Z,-2.21
2018-03-01T16:28:12.378Z,-1.72
2018-03-01T16:30:41.207Z,-1.66
2018-03-01T16:33:09.621Z,-2.14
2018-03-01T16:35:38.046Z,-2.32
2018-03-01T16:38:06.453Z,-2.22
2018-03-01T16:40:34.859Z,-2.54
2018-03-01T16:43:03.266Z,-2.35
2018-03-01T16:45:32.069Z,-2.67
2018-03-01T16:48:00.525Z,-2.14
2018-03-01T16:50:28.949Z,-2.48
2018-03-01T16:52:57.349Z,-2.58
2018-03-01T16:55:25.754Z,-2.43
2018-03-01T16:57:54.150Z,-2.44
2018-03-01T17:00:23.055Z,-2.54
2018-03-01T17:02:51.856Z,-2.35
2018-03-01T17:05:20.285Z,-2.46
2018-03-01T17:07:48.742Z,-2.86
2018-03-01T17:10:17.146Z,-2.45
2018-03-01T17:12:45.546Z,-2.54
2018-03-01T17:15:13.950Z,-2.36
2018-03-01T17:17:42.354Z,-2.81
2018-03-01T17:20:10.801Z,-2.95
2018-03-01T17:22:39.603Z,-2.45
2018-03-01T17:25:08.038Z,-2.67
2018-03-01T17:27:36.457Z,-2.54
2018-03-01T17:30:04.904Z,-2.23
2018-03-01T17:32:33.309Z,-2.56
2018-03-01T17:35:02.134Z,-2.30
2018-03-01T17:37:30.560Z,-2.64
2018-03-01T17:39:58.964Z,-2.31
2018-03-01T17:42:27.377Z,-2.11
2018-03-01T17:44:55.854Z,-2.88
2018-03-01T17:47:24.456Z,-2.20
2018-03-01T17:49:52.961Z,-2.44
2018-03-01T17:52:21.362Z,-2.20
2018-03-01T17:54:50.155Z,-2.13
2018-03-01T17:57:18.551Z,-2.35
2018-03-01T17:59:47.114Z,-2.47
2018-03-01T18:02:15.994Z,-2.54
2018-03-01T18:04:44.489Z,-2.53
2018-03-01T18:07:12.950Z,-2.89
2018-03-01T18:09:41.746Z,-3.16
2018-03-01T18:12:10.175Z,-2.83
2018-03-01T18:14:38.573Z,-3.04
2018-03-01T18:17:07.012Z,-2.80
2018-03-01T18:19:35.453Z,-2.98
2018-03-01T18:22:03.855Z,-2.77
2018-03-01T18:24:32.660Z,-2.37
2018-03-01T18:27:01.106Z,-2.84
2018-03-01T18:29:29.531Z,-3.31
2018-03-01T18:31:57.946Z,-3.26
2018-03-01T18:34:26.362Z,-3.27
2018-03-01T18:36:55.212Z,-2.89
2018-03-01T18:39:23.604Z,-3.01
2018-03-01T18:41:52.015Z,-3.30
2018-03-01T18:44:20.425Z,-3.47
2018-03-01T18:46:48.835Z,-3.42
2018-03-01T18:49:17.238Z,-3.54
2018-03-01T18:51:46.043Z,-2.75
2018-03-01T18:54:14.840Z,-3.42
2018-03-01T18:56:43.244Z,-3.46
2018-03-01T18:59:11.663Z,-3.44
2018-03-01T19:01:40.100Z,-3.59
2018-03-01T19:04:08.525Z,-3.27
2018-03-01T19:06:36.980Z,-3.66
2018-03-01T19:09:05.394Z,-3.62
2018-03-01T19:11:34.199Z,-3.47
2018-03-01T19:14:03.007Z,-3.67
2018-03-01T19:16:31.405Z,-3.36
2018-03-01T19:18:59.819Z,-3.04
2018-03-01T19:21:28.248Z,-3.72
2018-03-01T19:23:56.757Z,-3.97
2018-03-01T19:26:25.505Z,-3.91
2018-03-01T19:28:53.903Z,-3.58
2018-03-01T19:31:22.332Z,-3.15
2018-03-01T19:33:50.724Z,-3.32
2018-03-01T19:36:19.540Z,-3.71
2018-03-01T19:38:47.937Z,-3.85
2018-03-01T19:41:16.357Z,-3.49
2018-03-01T19:43:44.779Z,-3.57
2018-03-01T19:46:13.180Z,-3.47
2018-03-01T19:48:41.607Z,-3.83
2018-03-01T19:51:10.008Z,-3.25
2018-03-01T19:53:38.408Z,-3.17
2018-03-01T19:56:06.796Z,-3.39
2018-03-01T19:58:35.214Z,-3.88
2018-03-01T20:01:03.620Z,-4.46
2018-03-01T20:03:32.414Z,-4.08
2018-03-01T20:06:00.811Z,-4.09
2018-03-01T20:08:29.231Z,-4.47
2018-03-01T20:10:57.649Z,-4.71
2018-03-01T20:13:26.456Z,-4.32
2018-03-01T20:15:54.879Z,-3.92
2018-03-01T20:18:23.337Z,-4.55
2018-03-01T20:20:51.735Z,-4.32
2018-03-01T20:23:20.167Z,-4.20
2018-03-01T20:25:48.569Z,-4.63
2018-03-01T20:28:16.969Z,-4.73
2018-03-01T20:30:45.365Z,-4.66
2018-03-01T20:33:14.670Z,-4.49
2018-03-01T20:35:43.109Z,-4.46
2018-03-01T20:38:11.496Z,-4.30
2018-03-01T20:40:39.919Z,-4.30
2018-03-01T20:43:08.312Z,-4.42
2018-03-01T20:45:37.126Z,-4.61
2018-03-01T20:48:05.645Z,-4.39
2018-03-01T20:50:34.053Z,-4.07
2018-03-01T20:53:02.848Z,-4.29
2018-03-01T20:55:31.244Z,-4.45
2018-03-01T20:57:59.642Z,-4.78
2018-03-01T21:00:28.520Z,-4.85
2018-03-01T21:02:58.149Z,-5.30
2018-03-01T21:05:26.691Z,-4.67
2018-03-01T21:07:56.693Z,-4.65
2018-03-01T21:10:25.495Z,-4.88
2018-03-01T21:12:54.274Z,-4.75
2018-03-01T21:15:23.075Z,-5.14
2018-03-01T21:17:52.482Z,-4.97
2018-03-01T21:20:20.939Z,-4.56
2018-03-01T21:22:49.626Z,-4.51
2018-03-01T21:25:19.649Z,-5.11
2018-03-01T21:27:48.458Z,-5.12
2018-03-01T21:30:19.345Z,-4.81
2018-03-01T21:32:47.747Z,-4.82
2018-03-01T21:35:17.303Z,-4.91
2018-03-01T21:37:45.948Z,-4.45
2018-03-01T21:40:14.964Z,-4.93
2018-03-01T21:42:43.393Z,-4.97
2018-03-01T21:45:11.952Z,-4.65
2018-03-01T21:47:40.365Z,-5.70
2018-03-01T21:50:10.745Z,-4.93
2018-03-01T21:52:39.474Z,-4.64
2018-03-01T21:55:07.895Z,-5.27
2018-03-01T21:57:36.639Z,-5.72
2018-03-01T22:00:05.307Z,-5.16
2018-03-01T22:02:35.057Z,-5.32
2018-03-01T22:05:03.842Z,-5.08
2018-03-01T22:07:32.386Z,-5.07
2018-03-01T22:10:01.111Z,-4.74
2018-03-01T22:12:29.513Z,-5.11
2018-03-01T22:14:58.624Z,-5.15
2018-03-01T22:17:28.138Z,-5.26
2018-03-01T22:19:57.667Z,-5.30
2018-03-01T22:22:26.165Z,-5.15
2018-03-01T22:24:54.875Z,-5.13
2018-03-01T22:27:25.466Z,-5.68
2018-03-01T22:29:54.946Z,-5.36
2018-03-01T22:32:23.643Z,-5.20
2018-03-01T22:34:52.799Z,-4.78
2018-03-01T22:37:21.304Z,-5.01
2018-03-01T22:39:49.710Z,-5.20
2018-03-01T22:42:18.129Z,-5.01
2018-03-01T22:44:47.475Z,-5.67
2018-03-01T22:47:16.033Z,-5.29
2018-03-01T22:49:44.439Z,-5.40
2018-03-01T22:52:13.813Z,-5.26
2018-03-01T22:54:42.447Z,-4.94
2018-03-01T22:57:13.842Z,-5.21
2018-03-01T22:59:43.607Z,-4.77
2018-03-01T23:02:12.198Z,-5.31
2018-03-01T23:04:40.953Z,-4.93
2018-03-01T23:07:10.360Z,-5.19
2018-03-01T23:09:38.949Z,-5.45
2018-03-01T23:12:07.953Z,-5.32
2018-03-01T23:14:37.012Z,-5.04
2018-03-01T23:17:05.898Z,-5.56
2018-03-01T23:19:34.680Z,-5.38
2018-03-01T23:22:05.049Z,-5.29
2018-03-01T23:24:34.275Z,-5.88
2018-03-01T23:27:02.956Z,-5.56
2018-03-01T23:29:31.654Z,-5.55
2018-03-01T23:32:01.438Z,-5.67
2018-03-01T23:34:30.098Z,-5.90
2018-03-01T23:37:00.495Z,-5.23
2018-03-01T23:39:29.413Z,-5.33
2018-03-01T23:41:59.220Z,-5.05
2018-03-01T23:44:28.596Z,-5.66
2018-03-01T23:46:57.217Z,-5.23
2018-03-01T23:49:25.697Z,-5.27
2018-03-01T23:51:54.526Z,-5.68
2018-03-01T23:54:24.304Z,-5.29
2018-03-01T23:56:53.266Z,-5.89
2018-03-01T23:59:21.697Z,-6.25
